sensor_id;sensor_type;location;lat;lon;timestamp;pressure;altitude;pressure_sealevel;temperature;humidity
10145;BME280;5113;41.822;23.564;2024-02-21T00:02:43;-11134.34;;;7.23;53.08
10145;BME280;5113;41.822;23.564;2024-02-21T00:05:50;-11132.09;;;7.15;52.92
10145;BME280;5113;41.822;23.564;2024-02-21T00:08:58;-11129.03;;;7.04;53.27
10145;BME280;5113;41.822;23.564;2024-02-21T00:12:06;-11109.06;;;6.32;54.09
10145;BME280;5113;41.822;23.564;2024-02-21T00:15:12;-11132.81;;;7.18;53.26
10145;BME280;5113;41.822;23.564;2024-02-21T00:18:19;-11136.47;;;7.31;52.67
10145;BME280;5113;41.822;23.564;2024-02-21T00:21:27;-11138.00;;;7.37;52.35
10145;BME280;5113;41.822;23.564;2024-02-21T00:24:35;-11138.44;;;7.38;52.58
10145;BME280;5113;41.822;23.564;2024-02-21T00:27:43;-11127.34;;;6.98;53.25
10145;BME280;5113;41.822;23.564;2024-02-21T00:30:49;-11139.13;;;7.41;52.81
10145;BME280;5113;41.822;23.564;2024-02-21T00:33:58;-11145.19;;;7.62;52.37
10145;BME280;5113;41.822;23.564;2024-02-21T00:37:05;-11137.72;;;7.36;52.62
10145;BME280;5113;41.822;23.564;2024-02-21T00:40:13;-11151.63;;;7.86;52.23
10145;BME280;5113;41.822;23.564;2024-02-21T00:43:25;-11148.97;;;7.76;51.96
10145;BME280;5113;41.822;23.564;2024-02-21T00:46:32;-11152.34;;;7.88;51.93
10145;BME280;5113;41.822;23.564;2024-02-21T00:49:38;-11146.44;;;7.67;51.49
10145;BME280;5113;41.822;23.564;2024-02-21T00:52:47;-11149.94;;;7.80;52.29
10145;BME280;5113;41.822;23.564;2024-02-21T00:55:56;-11143.06;;;7.55;52.05
10145;BME280;5113;41.822;23.564;2024-02-21T00:59:03;-11152.34;;;7.88;51.33
10145;BME280;5113;41.822;23.564;2024-02-21T01:02:10;-11156.97;;;8.05;51.59
10145;BME280;5113;41.822;23.564;2024-02-21T01:05:17;-11162.75;;;8.26;51.26
10145;BME280;5113;41.822;23.564;2024-02-21T01:08:25;-11151.78;;;7.86;52.21
10145;BME280;5113;41.822;23.564;2024-02-21T01:11:33;-11166.81;;;8.41;51.59
10145;BME280;5113;41.822;23.564;2024-02-21T01:14:39;-11153.03;;;7.91;51.76
10145;BME280;5113;41.822;23.564;2024-02-21T01:17:46;-11165.00;;;8.34;51.19
10145;BME280;5113;41.822;23.564;2024-02-21T01:20:55;-11154.03;;;7.94;51.71
10145;BME280;5113;41.822;23.564;2024-02-21T01:24:02;-11143.06;;;7.55;53.16
10145;BME280;5113;41.822;23.564;2024-02-21T01:27:10;-11157.69;;;8.08;52.35
10145;BME280;5113;41.822;23.564;2024-02-21T01:30:17;-11157.13;;;8.06;52.08
10145;BME280;5113;41.822;23.564;2024-02-21T01:33:24;-11150.66;;;7.82;52.77
10145;BME280;5113;41.822;23.564;2024-02-21T01:36:31;-11161.91;;;8.23;52.04
10145;BME280;5113;41.822;23.564;2024-02-21T01:39:37;-11166.41;;;8.39;52.07
10145;BME280;5113;41.822;23.564;2024-02-21T01:42:45;-11169.78;;;8.51;51.02
10145;BME280;5113;41.822;23.564;2024-02-21T01:45:54;-11158.09;;;8.09;52.29
10145;BME280;5113;41.822;23.564;2024-02-21T01:49:01;-11161.91;;;8.23;52.14
10145;BME280;5113;41.822;23.564;2024-02-21T01:52:10;-11167.25;;;8.42;52.07
10145;BME280;5113;41.822;23.564;2024-02-21T01:55:19;-11166.69;;;8.40;52.31
10145;BME280;5113;41.822;23.564;2024-02-21T01:58:29;-11169.34;;;8.50;52.17
10145;BME280;5113;41.822;23.564;2024-02-21T02:01:36;-11159.66;;;8.15;52.58
10145;BME280;5113;41.822;23.564;2024-02-21T02:04:43;-11130.13;;;7.08;54.17
10145;BME280;5113;41.822;23.564;2024-02-21T02:07:51;-11161.63;;;8.22;52.58
10145;BME280;5113;41.822;23.564;2024-02-21T02:10:58;-11159.94;;;8.16;52.18
10145;BME280;5113;41.822;23.564;2024-02-21T02:14:07;-11160.63;;;8.18;52.23
10145;BME280;5113;41.822;23.564;2024-02-21T02:17:14;-11159.50;;;8.14;51.62
10145;BME280;5113;41.822;23.564;2024-02-21T02:20:22;-11138.56;;;7.39;54.70
10145;BME280;5113;41.822;23.564;2024-02-21T02:23:31;-11158.09;;;8.09;52.58
10145;BME280;5113;41.822;23.564;2024-02-21T02:26:38;-11154.31;;;7.95;53.04
10145;BME280;5113;41.822;23.564;2024-02-21T02:29:45;-11164.44;;;8.32;52.08
10145;BME280;5113;41.822;23.564;2024-02-21T02:32:52;-11173.16;;;8.64;51.33
10145;BME280;5113;41.822;23.564;2024-02-21T02:35:58;-11168.66;;;8.47;51.91
10145;BME280;5113;41.822;23.564;2024-02-21T02:39:07;-11173.44;;;8.65;51.95
10145;BME280;5113;41.822;23.564;2024-02-21T02:42:14;-11165.56;;;8.36;52.44
10145;BME280;5113;41.822;23.564;2024-02-21T02:45:21;-11159.22;;;8.13;52.36
10145;BME280;5113;41.822;23.564;2024-02-21T02:48:28;-11167.09;;;8.42;52.32
10145;BME280;5113;41.822;23.564;2024-02-21T02:51:36;-11157.25;;;8.06;52.03
10145;BME280;5113;41.822;23.564;2024-02-21T02:54:44;-11146.72;;;7.68;53.03
10145;BME280;5113;41.822;23.564;2024-02-21T02:57:56;-11165.69;;;8.37;51.84
10145;BME280;5113;41.822;23.564;2024-02-21T03:01:03;-11172.72;;;8.62;51.30
10145;BME280;5113;41.822;23.564;2024-02-21T03:04:10;-11172.88;;;8.63;51.66
10145;BME280;5113;41.822;23.564;2024-02-21T03:07:16;-11168.37;;;8.46;51.74
10145;BME280;5113;41.822;23.564;2024-02-21T03:10:25;-11171.88;;;8.59;51.69
10145;BME280;5113;41.822;23.564;2024-02-21T03:13:31;-11167.09;;;8.42;52.01
10145;BME280;5113;41.822;23.564;2024-02-21T03:16:39;-11161.63;;;8.22;51.57
10145;BME280;5113;41.822;23.564;2024-02-21T03:19:45;-11168.66;;;8.47;51.49
10145;BME280;5113;41.822;23.564;2024-02-21T03:22:53;-11163.31;;;8.28;51.49
10145;BME280;5113;41.822;23.564;2024-02-21T03:26:01;-11170.06;;;8.52;51.89
10145;BME280;5113;41.822;23.564;2024-02-21T03:29:10;-11175.38;;;8.72;51.08
10145;BME280;5113;41.822;23.564;2024-02-21T03:32:16;-11176.38;;;8.75;50.83
10145;BME280;5113;41.822;23.564;2024-02-21T03:35:23;-11169.91;;;8.52;51.37
10145;BME280;5113;41.822;23.564;2024-02-21T03:38:31;-11166.81;;;8.41;51.79
10145;BME280;5113;41.822;23.564;2024-02-21T03:41:39;-11170.34;;;8.53;51.23
10145;BME280;5113;41.822;23.564;2024-02-21T03:44:46;-11159.50;;;8.14;51.91
10145;BME280;5113;41.822;23.564;2024-02-21T03:47:52;-11157.53;;;8.07;51.84
10145;BME280;5113;41.822;23.564;2024-02-21T03:50:59;-11179.31;;;8.86;50.78
10145;BME280;5113;41.822;23.564;2024-02-21T03:54:06;-11165.84;;;8.37;51.31
10145;BME280;5113;41.822;23.564;2024-02-21T03:57:14;-11163.88;;;8.30;51.78
10145;BME280;5113;41.822;23.564;2024-02-21T04:00:23;-11152.75;;;7.90;52.39
10145;BME280;5113;41.822;23.564;2024-02-21T04:03:30;-11167.53;;;8.43;51.54
10145;BME280;5113;41.822;23.564;2024-02-21T04:06:46;-11144.75;;;7.61;53.75
10145;BME280;5113;41.822;23.564;2024-02-21T04:09:53;-11132.38;;;7.16;54.84
10145;BME280;5113;41.822;23.564;2024-02-21T04:13:02;-11160.78;;;8.19;52.66
10145;BME280;5113;41.822;23.564;2024-02-21T04:16:08;-11161.34;;;8.21;52.86
10145;BME280;5113;41.822;23.564;2024-02-21T04:19:16;-11169.22;;;8.49;52.12
10145;BME280;5113;41.822;23.564;2024-02-21T04:22:23;-11154.44;;;7.96;52.56
10145;BME280;5113;41.822;23.564;2024-02-21T04:25:30;-11160.91;;;8.19;51.91
10145;BME280;5113;41.822;23.564;2024-02-21T04:28:38;-11156.13;;;8.02;52.38
10145;BME280;5113;41.822;23.564;2024-02-21T04:31:45;-11154.88;;;7.98;52.43
10145;BME280;5113;41.822;23.564;2024-02-21T04:34:52;-11144.06;;;7.58;53.02
10145;BME280;5113;41.822;23.564;2024-02-21T04:37:59;-11139.13;;;7.41;53.86
10145;BME280;5113;41.822;23.564;2024-02-21T04:41:06;-11125.09;;;6.90;54.78
10145;BME280;5113;41.822;23.564;2024-02-21T04:44:14;-11132.38;;;7.16;54.36
10145;BME280;5113;41.822;23.564;2024-02-21T04:47:22;-11127.91;;;7.00;54.96
10145;BME280;5113;41.822;23.564;2024-02-21T04:50:49;-11131.69;;;7.14;54.91
10145;BME280;5113;41.822;23.564;2024-02-21T04:53:55;-11110.75;;;6.38;57.05
10145;BME280;5113;41.822;23.564;2024-02-21T04:57:05;-11124.94;;;6.89;55.72
10145;BME280;5113;41.822;23.564;2024-02-21T05:00:14;-11136.03;;;7.29;54.49
10145;BME280;5113;41.822;23.564;2024-02-21T05:03:21;-11138.16;;;7.37;54.24
10145;BME280;5113;41.822;23.564;2024-02-21T05:06:28;-11123.41;;;6.84;55.02
10145;BME280;5113;41.822;23.564;2024-02-21T05:09:35;-11138.84;;;7.40;54.02
10145;BME280;5113;41.822;23.564;2024-02-21T05:12:41;-11127.63;;;6.99;54.74
10145;BME280;5113;41.822;23.564;2024-02-21T05:15:49;-11129.03;;;7.04;54.99
10145;BME280;5113;41.822;23.564;2024-02-21T05:18:56;-11127.91;;;7.00;54.72
10145;BME280;5113;41.822;23.564;2024-02-21T05:22:03;-11138.72;;;7.39;54.21
10145;BME280;5113;41.822;23.564;2024-02-21T05:25:11;-11103.19;;;6.11;56.81
10145;BME280;5113;41.822;23.564;2024-02-21T05:28:18;-11108.22;;;6.29;56.84
10145;BME280;5113;41.822;23.564;2024-02-21T05:31:26;-11097.97;;;5.92;58.34
10145;BME280;5113;41.822;23.564;2024-02-21T05:34:48;-11106.41;;;6.22;57.20
10145;BME280;5113;41.822;23.564;2024-02-21T05:37:56;-11129.03;;;7.04;55.09
10145;BME280;5113;41.822;23.564;2024-02-21T05:41:05;-11138.28;;;7.38;54.64
10145;BME280;5113;41.822;23.564;2024-02-21T05:44:16;-11132.09;;;7.15;55.00
10145;BME280;5113;41.822;23.564;2024-02-21T05:47:24;-11135.63;;;7.28;54.91
10145;BME280;5113;41.822;23.564;2024-02-21T05:50:31;-11164.16;;;8.31;52.51
10145;BME280;5113;41.822;23.564;2024-02-21T05:53:38;-11147.41;;;7.71;53.15
10145;BME280;5113;41.822;23.564;2024-02-21T05:56:46;-11149.38;;;7.78;52.97
10145;BME280;5113;41.822;23.564;2024-02-21T05:59:53;-11134.34;;;7.23;53.94
10145;BME280;5113;41.822;23.564;2024-02-21T06:03:01;-11148.81;;;7.76;53.40
10145;BME280;5113;41.822;23.564;2024-02-21T06:06:07;-11155.28;;;7.99;52.16
10145;BME280;5113;41.822;23.564;2024-02-21T06:09:14;-11153.75;;;7.93;53.31
10145;BME280;5113;41.822;23.564;2024-02-21T06:12:21;-11164.16;;;8.31;52.57
10145;BME280;5113;41.822;23.564;2024-02-21T06:15:28;-11195.34;;;9.44;50.69
10145;BME280;5113;41.822;23.564;2024-02-21T06:18:36;-11164.44;;;8.32;52.41
10145;BME280;5113;41.822;23.564;2024-02-21T06:21:43;-11123.69;;;6.85;55.63
10145;BME280;5113;41.822;23.564;2024-02-21T06:24:50;-11138.28;;;7.38;54.37
10145;BME280;5113;41.822;23.564;2024-02-21T06:27:59;-11138.56;;;7.39;54.37
10145;BME280;5113;41.822;23.564;2024-02-21T06:31:06;-11152.19;;;7.88;53.52
10145;BME280;5113;41.822;23.564;2024-02-21T06:34:14;-11168.09;;;8.45;52.48
10145;BME280;5113;41.822;23.564;2024-02-21T06:37:22;-11167.94;;;8.45;52.11
10145;BME280;5113;41.822;23.564;2024-02-21T06:40:29;-11173.44;;;8.65;51.74
10145;BME280;5113;41.822;23.564;2024-02-21T06:43:43;-11163.03;;;8.27;51.80
10145;BME280;5113;41.822;23.564;2024-02-21T06:46:49;-11191.69;;;9.31;49.81
10145;BME280;5113;41.822;23.564;2024-02-21T06:49:58;-11195.06;;;9.43;49.59
10145;BME280;5113;41.822;23.564;2024-02-21T06:53:05;-11204.91;;;9.78;49.12
10145;BME280;5113;41.822;23.564;2024-02-21T06:56:12;-11209.84;;;9.96;48.67
10145;BME280;5113;41.822;23.564;2024-02-21T06:59:18;-11200.13;;;9.61;49.52
10145;BME280;5113;41.822;23.564;2024-02-21T07:02:25;-11220.94;;;10.36;47.97
10145;BME280;5113;41.822;23.564;2024-02-21T07:05:33;-11228.25;;;10.63;47.76
10145;BME280;5113;41.822;23.564;2024-02-21T07:08:40;-11228.69;;;10.64;47.69
10145;BME280;5113;41.822;23.564;2024-02-21T07:11:46;-11213.06;;;10.08;49.08
10145;BME280;5113;41.822;23.564;2024-02-21T07:14:53;-11209.13;;;9.93;48.14
10145;BME280;5113;41.822;23.564;2024-02-21T07:18:00;-11218.41;;;10.27;48.26
10145;BME280;5113;41.822;23.564;2024-02-21T07:21:08;-11213.22;;;10.08;48.81
10145;BME280;5113;41.822;23.564;2024-02-21T07:24:15;-11184.81;;;9.06;50.66
10145;BME280;5113;41.822;23.564;2024-02-21T07:27:21;-11202.94;;;9.71;49.60
10145;BME280;5113;41.822;23.564;2024-02-21T07:30:28;-11221.94;;;10.40;48.19
10145;BME280;5113;41.822;23.564;2024-02-21T07:33:35;-11222.34;;;10.41;48.08
10145;BME280;5113;41.822;23.564;2024-02-21T07:36:43;-11230.09;;;10.69;48.36
10145;BME280;5113;41.822;23.564;2024-02-21T07:39:50;-11252.03;;;11.48;46.83
10145;BME280;5113;41.822;23.564;2024-02-21T07:42:57;-11245.72;;;11.25;47.14
10145;BME280;5113;41.822;23.564;2024-02-21T07:46:04;-11231.50;;;10.74;47.99
10145;BME280;5113;41.822;23.564;2024-02-21T07:49:11;-11236.00;;;10.90;47.41
10145;BME280;5113;41.822;23.564;2024-02-21T07:52:19;-11243.75;;;11.18;48.29
10145;BME280;5113;41.822;23.564;2024-02-21T07:55:25;-11269.63;;;12.12;46.21
10145;BME280;5113;41.822;23.564;2024-02-21T07:58:32;-11285.69;;;12.70;45.45
10145;BME280;5113;41.822;23.564;2024-02-21T08:01:40;-11249.66;;;11.40;47.61
10145;BME280;5113;41.822;23.564;2024-02-21T08:04:48;-11278.50;;;12.44;46.04
10145;BME280;5113;41.822;23.564;2024-02-21T08:07:56;-11298.34;;;13.15;44.90
10145;BME280;5113;41.822;23.564;2024-02-21T08:11:03;-11300.03;;;13.21;44.95
10145;BME280;5113;41.822;23.564;2024-02-21T08:14:11;-11259.78;;;11.76;46.36
10145;BME280;5113;41.822;23.564;2024-02-21T08:17:24;-11298.50;;;13.16;45.12
10145;BME280;5113;41.822;23.564;2024-02-21T08:20:31;-11267.53;;;12.04;45.37
10145;BME280;5113;41.822;23.564;2024-02-21T08:23:39;-11290.47;;;12.87;45.17
10145;BME280;5113;41.822;23.564;2024-02-21T08:26:47;-11281.16;;;12.53;45.29
10145;BME280;5113;41.822;23.564;2024-02-21T08:29:54;-11301.59;;;13.27;44.30
10145;BME280;5113;41.822;23.564;2024-02-21T08:33:00;-11300.88;;;13.25;44.17
10145;BME280;5113;41.822;23.564;2024-02-21T08:36:09;-11299.19;;;13.18;43.99
10145;BME280;5113;41.822;23.564;2024-02-21T08:39:17;-11270.75;;;12.16;45.52
10145;BME280;5113;41.822;23.564;2024-02-21T08:42:24;-11325.66;;;14.14;42.80
10145;BME280;5113;41.822;23.564;2024-02-21T08:45:31;-11317.63;;;13.85;42.96
10145;BME280;5113;41.822;23.564;2024-02-21T08:48:37;-11314.13;;;13.72;42.50
10145;BME280;5113;41.822;23.564;2024-02-21T08:51:44;-11306.22;;;13.44;42.43
10145;BME280;5113;41.822;23.564;2024-02-21T08:54:53;-11348.75;;;14.97;41.24
10145;BME280;5113;41.822;23.564;2024-02-21T08:58:00;-11335.09;;;14.48;40.96
10145;BME280;5113;41.822;23.564;2024-02-21T09:01:10;-11343.25;;;14.77;40.62
10145;BME280;5113;41.822;23.564;2024-02-21T09:04:17;-11330.72;;;14.32;40.56
10145;BME280;5113;41.822;23.564;2024-02-21T09:07:24;-11302.84;;;13.32;42.33
10145;BME280;5113;41.822;23.564;2024-02-21T09:10:32;-11349.59;;;15.00;39.61
10145;BME280;5113;41.822;23.564;2024-02-21T09:13:38;-11340.88;;;14.69;40.47
10145;BME280;5113;41.822;23.564;2024-02-21T09:16:45;-11334.09;;;14.44;40.17
10145;BME280;5113;41.822;23.564;2024-02-21T09:19:52;-11353.53;;;15.14;39.59
10145;BME280;5113;41.822;23.564;2024-02-21T09:23:01;-11346.22;;;14.88;39.09
10145;BME280;5113;41.822;23.564;2024-02-21T09:26:09;-11352.97;;;15.12;38.39
10145;BME280;5113;41.822;23.564;2024-02-21T09:29:18;-11360.03;;;15.38;38.75
10145;BME280;5113;41.822;23.564;2024-02-21T09:32:29;-11333.84;;;14.43;39.85
10145;BME280;5113;41.822;23.564;2024-02-21T09:35:38;-11322.69;;;14.03;39.14
10145;BME280;5113;41.822;23.564;2024-02-21T09:38:44;-11335.78;;;14.50;38.20
10145;BME280;5113;41.822;23.564;2024-02-21T09:41:59;-11371.28;;;15.78;36.52
10145;BME280;5113;41.822;23.564;2024-02-21T09:45:08;-11350.16;;;15.02;36.92
10145;BME280;5113;41.822;23.564;2024-02-21T09:48:39;-11377.50;;;16.01;35.36
10145;BME280;5113;41.822;23.564;2024-02-21T09:51:51;-11383.97;;;16.24;34.63
10145;BME280;5113;41.822;23.564;2024-02-21T09:55:01;-11381.88;;;16.16;34.93
10145;BME280;5113;41.822;23.564;2024-02-21T09:58:11;-11345.09;;;14.84;35.18
10145;BME280;5113;41.822;23.564;2024-02-21T10:01:18;-11373.56;;;15.87;34.27
10145;BME280;5113;41.822;23.564;2024-02-21T10:04:40;-11372.44;;;15.82;34.33
10145;BME280;5113;41.822;23.564;2024-02-21T10:07:47;-11375.81;;;15.95;33.79
10145;BME280;5113;41.822;23.564;2024-02-21T10:10:55;-11391.59;;;16.51;33.65
10145;BME280;5113;41.822;23.564;2024-02-21T10:14:07;-11362.00;;;15.45;33.72
10145;BME280;5113;41.822;23.564;2024-02-21T10:17:16;-11416.09;;;17.40;32.60
10145;BME280;5113;41.822;23.564;2024-02-21T10:20:24;-11382.56;;;16.19;34.05
10145;BME280;5113;41.822;23.564;2024-02-21T10:23:44;-11370.31;;;15.75;33.28
10145;BME280;5113;41.822;23.564;2024-02-21T10:26:59;-11375.25;;;15.93;33.88
10145;BME280;5113;41.822;23.564;2024-02-21T10:30:12;-11397.50;;;16.73;33.42
10145;BME280;5113;41.822;23.564;2024-02-21T10:33:19;-11350.44;;;15.03;34.44
10145;BME280;5113;41.822;23.564;2024-02-21T10:36:27;-11397.94;;;16.74;33.12
10145;BME280;5113;41.822;23.564;2024-02-21T10:39:35;-11382.56;;;16.19;33.45
10145;BME280;5113;41.822;23.564;2024-02-21T10:42:42;-11423.31;;;17.66;31.72
10145;BME280;5113;41.822;23.564;2024-02-21T10:45:52;-11390.47;;;16.47;33.48
10145;BME280;5113;41.822;23.564;2024-02-21T10:49:07;-11373.56;;;15.87;34.45
10145;BME280;5113;41.822;23.564;2024-02-21T10:52:37;-11378.91;;;16.06;34.68
10145;BME280;5113;41.822;23.564;2024-02-21T10:55:50;-11390.19;;;16.46;34.46
10145;BME280;5113;41.822;23.564;2024-02-21T10:59:03;-11402.56;;;16.91;33.65
10145;BME280;5113;41.822;23.564;2024-02-21T11:02:12;-11386.78;;;16.34;34.63
10145;BME280;5113;41.822;23.564;2024-02-21T11:05:20;-11400.88;;;16.85;34.46
10145;BME280;5113;41.822;23.564;2024-02-21T11:08:27;-11397.22;;;16.72;34.07
10145;BME280;5113;41.822;23.564;2024-02-21T11:11:34;-11433.16;;;18.01;33.35
10145;BME280;5113;41.822;23.564;2024-02-21T11:14:45;-11448.66;;;18.57;33.34
10145;BME280;5113;41.822;23.564;2024-02-21T11:17:56;-11399.75;;;16.81;35.04
10145;BME280;5113;41.822;23.564;2024-02-21T11:21:06;-11381.72;;;16.16;35.17
10145;BME280;5113;41.822;23.564;2024-02-21T11:24:25;-11380.88;;;16.13;34.85
10145;BME280;5113;41.822;23.564;2024-02-21T11:27:33;-11393.28;;;16.58;35.47
10145;BME280;5113;41.822;23.564;2024-02-21T11:30:40;-11416.94;;;17.43;34.08
10145;BME280;5113;41.822;23.564;2024-02-21T11:33:51;-11425.69;;;17.74;34.25
10145;BME280;5113;41.822;23.564;2024-02-21T11:36:58;-11384.81;;;16.27;36.44
10145;BME280;5113;41.822;23.564;2024-02-21T11:40:05;-11363.13;;;15.49;36.83
10145;BME280;5113;41.822;23.564;2024-02-21T11:43:17;-11422.03;;;17.61;36.00
10145;BME280;5113;41.822;23.564;2024-02-21T11:46:24;-11359.19;;;15.35;37.52
10145;BME280;5113;41.822;23.564;2024-02-21T11:49:37;-11388.47;;;16.40;36.91
10145;BME280;5113;41.822;23.564;2024-02-21T11:52:44;-11382.00;;;16.17;37.44
10145;BME280;5113;41.822;23.564;2024-02-21T11:55:52;-11390.75;;;16.48;36.71
10145;BME280;5113;41.822;23.564;2024-02-21T11:59:00;-11419.78;;;17.53;36.39
10145;BME280;5113;41.822;23.564;2024-02-21T12:02:08;-11389.47;;;16.44;36.45
10145;BME280;5113;41.822;23.564;2024-02-21T12:05:18;-11389.63;;;16.44;37.02
10145;BME280;5113;41.822;23.564;2024-02-21T12:08:26;-11411.75;;;17.24;35.25
10145;BME280;5113;41.822;23.564;2024-02-21T12:11:34;-11394.97;;;16.64;35.57
10145;BME280;5113;41.822;23.564;2024-02-21T12:14:40;-11389.75;;;16.45;35.65
10145;BME280;5113;41.822;23.564;2024-02-21T12:17:47;-11366.22;;;15.60;36.64
10145;BME280;5113;41.822;23.564;2024-02-21T12:20:55;-11382.56;;;16.19;35.94
10145;BME280;5113;41.822;23.564;2024-02-21T12:24:11;-11372.56;;;15.83;36.25
10145;BME280;5113;41.822;23.564;2024-02-21T12:27:19;-11358.19;;;15.31;37.30
10145;BME280;5113;41.822;23.564;2024-02-21T12:30:27;-11385.81;;;16.31;36.28
10145;BME280;5113;41.822;23.564;2024-02-21T12:33:35;-11355.22;;;15.20;37.04
10145;BME280;5113;41.822;23.564;2024-02-21T12:36:44;-11400.31;;;16.83;34.38
10145;BME280;5113;41.822;23.564;2024-02-21T12:39:52;-11404.13;;;16.97;35.53
10145;BME280;5113;41.822;23.564;2024-02-21T12:42:59;-11381.44;;;16.15;35.33
10145;BME280;5113;41.822;23.564;2024-02-21T12:46:07;-11371.72;;;15.80;36.18
10145;BME280;5113;41.822;23.564;2024-02-21T12:49:14;-11411.03;;;17.22;34.86
10145;BME280;5113;41.822;23.564;2024-02-21T12:52:22;-11372.84;;;15.84;36.09
10145;BME280;5113;41.822;23.564;2024-02-21T12:55:30;-11404.84;;;16.99;35.11
10145;BME280;5113;41.822;23.564;2024-02-21T12:58:37;-11422.59;;;17.63;34.07
10145;BME280;5113;41.822;23.564;2024-02-21T13:01:44;-11380.59;;;16.12;35.08
10145;BME280;5113;41.822;23.564;2024-02-21T13:04:50;-11369.03;;;15.70;34.48
10145;BME280;5113;41.822;23.564;2024-02-21T13:07:59;-11390.47;;;16.47;33.83
10145;BME280;5113;41.822;23.564;2024-02-21T13:11:06;-11379.75;;;16.09;35.11
10145;BME280;5113;41.822;23.564;2024-02-21T13:14:14;-11421.03;;;17.58;33.41
10145;BME280;5113;41.822;23.564;2024-02-21T13:17:20;-11401.44;;;16.87;33.54
10145;BME280;5113;41.822;23.564;2024-02-21T13:20:28;-11421.31;;;17.59;33.15
10145;BME280;5113;41.822;23.564;2024-02-21T13:23:36;-11393.28;;;16.58;34.02
10145;BME280;5113;41.822;23.564;2024-02-21T13:26:43;-11439.94;;;18.26;32.03
10145;BME280;5113;41.822;23.564;2024-02-21T13:29:50;-11423.31;;;17.66;32.53
10145;BME280;5113;41.822;23.564;2024-02-21T13:32:57;-11429.66;;;17.89;32.17
10145;BME280;5113;41.822;23.564;2024-02-21T13:36:05;-11397.22;;;16.72;31.79
10145;BME280;5113;41.822;23.564;2024-02-21T13:39:13;-11431.19;;;17.94;30.82
10145;BME280;5113;41.822;23.564;2024-02-21T13:42:21;-11421.75;;;17.60;31.07
10145;BME280;5113;41.822;23.564;2024-02-21T13:45:29;-11384.81;;;16.27;31.38
10145;BME280;5113;41.822;23.564;2024-02-21T13:48:36;-11412.72;;;17.28;31.85
10145;BME280;5113;41.822;23.564;2024-02-21T13:51:42;-11366.50;;;15.61;32.97
10145;BME280;5113;41.822;23.564;2024-02-21T13:54:51;-11431.06;;;17.94;30.92
10145;BME280;5113;41.822;23.564;2024-02-21T13:57:58;-11393.28;;;16.58;32.84
10145;BME280;5113;41.822;23.564;2024-02-21T14:01:05;-11391.31;;;16.50;32.06
10145;BME280;5113;41.822;23.564;2024-02-21T14:04:11;-11415.81;;;17.39;30.91
10145;BME280;5113;41.822;23.564;2024-02-21T14:07:18;-11416.09;;;17.40;31.28
10145;BME280;5113;41.822;23.564;2024-02-21T14:10:28;-11402.88;;;16.92;31.22
10145;BME280;5113;41.822;23.564;2024-02-21T14:13:35;-11421.88;;;17.61;30.88
10145;BME280;5113;41.822;23.564;2024-02-21T14:16:43;-11423.16;;;17.65;31.90
10145;BME280;5113;41.822;23.564;2024-02-21T14:19:49;-11396.38;;;16.69;33.12
10145;BME280;5113;41.822;23.564;2024-02-21T14:22:58;-11381.88;;;16.16;32.97
10145;BME280;5113;41.822;23.564;2024-02-21T14:26:06;-11395.25;;;16.65;32.37
10145;BME280;5113;41.822;23.564;2024-02-21T14:29:12;-11373.56;;;15.87;32.87
10145;BME280;5113;41.822;23.564;2024-02-21T14:32:19;-11384.41;;;16.26;33.03
10145;BME280;5113;41.822;23.564;2024-02-21T14:35:26;-11362.69;;;15.47;34.59
10145;BME280;5113;41.822;23.564;2024-02-21T14:38:33;-11346.78;;;14.90;35.14
10145;BME280;5113;41.822;23.564;2024-02-21T14:41:42;-11332.13;;;14.37;35.72
10145;BME280;5113;41.822;23.564;2024-02-21T14:44:49;-11351.00;;;15.05;35.48
10145;BME280;5113;41.822;23.564;2024-02-21T14:47:56;-11337.22;;;14.56;35.98
10145;BME280;5113;41.822;23.564;2024-02-21T14:51:03;-11339.19;;;14.63;36.46
10145;BME280;5113;41.822;23.564;2024-02-21T14:54:10;-11319.03;;;13.90;36.93
10145;BME280;5113;41.822;23.564;2024-02-21T14:57:18;-11330.03;;;14.30;36.99
10145;BME280;5113;41.822;23.564;2024-02-21T15:00:25;-11319.87;;;13.93;37.23
10145;BME280;5113;41.822;23.564;2024-02-21T15:03:35;-11307.34;;;13.48;37.33
10145;BME280;5113;41.822;23.564;2024-02-21T15:06:41;-11309.75;;;13.57;37.21
10145;BME280;5113;41.822;23.564;2024-02-21T15:09:50;-11329.03;;;14.26;36.77
10145;BME280;5113;41.822;23.564;2024-02-21T15:12:58;-11323.25;;;14.05;36.95
10145;BME280;5113;41.822;23.564;2024-02-21T15:16:05;-11314.41;;;13.73;36.82
10145;BME280;5113;41.822;23.564;2024-02-21T15:19:12;-11328.06;;;14.23;36.63
10145;BME280;5113;41.822;23.564;2024-02-21T15:22:20;-11327.22;;;14.19;36.40
10145;BME280;5113;41.822;23.564;2024-02-21T15:25:28;-11317.22;;;13.83;37.06
10145;BME280;5113;41.822;23.564;2024-02-21T15:28:37;-11327.63;;;14.21;37.20
10145;BME280;5113;41.822;23.564;2024-02-21T15:31:44;-11309.03;;;13.54;38.42
10145;BME280;5113;41.822;23.564;2024-02-21T15:34:52;-11326.22;;;14.16;38.00
10145;BME280;5113;41.822;23.564;2024-02-21T15:38:00;-11336.94;;;14.54;37.49
10145;BME280;5113;41.822;23.564;2024-02-21T15:41:06;-11318.63;;;13.88;38.47
10145;BME280;5113;41.822;23.564;2024-02-21T15:44:14;-11338.63;;;14.61;37.92
10145;BME280;5113;41.822;23.564;2024-02-21T15:47:20;-11303.56;;;13.34;39.02
10145;BME280;5113;41.822;23.564;2024-02-21T15:50:29;-11292.56;;;12.95;39.52
10145;BME280;5113;41.822;23.564;2024-02-21T15:53:35;-11291.59;;;12.91;39.95
10145;BME280;5113;41.822;23.564;2024-02-21T15:56:43;-11305.09;;;13.40;39.26
10145;BME280;5113;41.822;23.564;2024-02-21T15:59:52;-11301.59;;;13.27;39.42
10145;BME280;5113;41.822;23.564;2024-02-21T16:03:00;-11306.38;;;13.44;39.07
10145;BME280;5113;41.822;23.564;2024-02-21T16:06:08;-11305.66;;;13.42;38.88
10145;BME280;5113;41.822;23.564;2024-02-21T16:09:15;-11310.16;;;13.58;38.99
10145;BME280;5113;41.822;23.564;2024-02-21T16:12:21;-11311.56;;;13.63;38.80
10145;BME280;5113;41.822;23.564;2024-02-21T16:15:34;-11306.38;;;13.44;38.76
10145;BME280;5113;41.822;23.564;2024-02-21T16:18:41;-11306.78;;;13.46;38.03
10145;BME280;5113;41.822;23.564;2024-02-21T16:21:48;-11287.91;;;12.78;39.22
10145;BME280;5113;41.822;23.564;2024-02-21T16:24:54;-11292.00;;;12.93;39.29
10145;BME280;5113;41.822;23.564;2024-02-21T16:28:01;-11306.78;;;13.46;39.05
10145;BME280;5113;41.822;23.564;2024-02-21T16:31:12;-11294.41;;;13.01;39.41